createdAt,value
2023-11-23T00:03:37.333Z,15.27
2023-11-23T00:07:41.640Z,15.41
2023-11-23T00:11:42.957Z,15.60
2023-11-23T00:15:44.358Z,15.75
2023-11-23T00:19:47.933Z,15.51
2023-11-23T00:23:49.662Z,15.73
2023-11-23T00:27:51.097Z,15.90
2023-11-23T00:31:52.829Z,16.11
2023-11-23T00:35:55.320Z,16.08
2023-11-23T00:39:56.736Z,16.14
2023-11-23T00:43:58.192Z,16.21
2023-11-23T00:47:59.697Z,16.40
2023-11-23T00:52:02.240Z,16.46
2023-11-23T00:56:04.320Z,16.60
2023-11-23T01:00:08.306Z,16.59
2023-11-23T01:04:09.718Z,16.72
2023-11-23T01:08:12.295Z,16.63
2023-11-23T01:12:13.716Z,16.23
2023-11-23T01:16:15.189Z,16.23
2023-11-23T01:20:16.626Z,16.37
2023-11-23T01:24:18.410Z,16.47
2023-11-23T01:28:19.963Z,16.75
2023-11-23T01:32:21.339Z,16.78
2023-11-23T01:36:22.683Z,16.89
2023-11-23T01:40:24.010Z,16.94
2023-11-23T01:44:25.443Z,17.02
2023-11-23T01:48:27.972Z,17.01
2023-11-23T01:52:30.707Z,17.00
2023-11-23T01:56:32.121Z,17.11
2023-11-23T02:00:34.097Z,17.14
2023-11-23T02:04:35.588Z,17.22
2023-11-23T02:08:37.272Z,17.20
2023-11-23T02:12:39.426Z,17.24
2023-11-23T02:16:40.856Z,17.21
2023-11-23T02:20:48.150Z,17.30
2023-11-23T02:24:49.626Z,17.43
2023-11-23T02:28:50.954Z,17.46
2023-11-23T02:32:52.444Z,17.51
2023-11-23T02:36:53.997Z,17.37
2023-11-23T02:40:55.387Z,17.15
2023-11-23T02:44:56.773Z,17.36
2023-11-23T02:48:58.250Z,17.25
2023-11-23T02:52:59.836Z,17.24
2023-11-23T02:57:01.203Z,17.35
2023-11-23T03:01:02.539Z,17.54
2023-11-23T03:05:05.025Z,17.49
2023-11-23T03:09:06.472Z,17.56
2023-11-23T03:13:08.525Z,17.46
2023-11-23T03:17:10.062Z,17.17
2023-11-23T03:21:12.017Z,17.44
2023-11-23T03:25:13.572Z,17.55
2023-11-23T03:29:14.963Z,17.72
2023-11-23T03:33:16.419Z,17.44
2023-11-23T03:37:20.121Z,17.57
2023-11-23T03:41:21.618Z,17.60
2023-11-23T03:45:23.886Z,17.64
2023-11-23T03:49:25.426Z,17.75
2023-11-23T03:53:26.859Z,17.84
2023-11-23T03:57:28.314Z,17.93
2023-11-23T04:01:29.767Z,17.70
2023-11-23T04:05:31.137Z,18.13
2023-11-23T04:09:32.438Z,18.00
2023-11-23T04:13:33.835Z,18.09
2023-11-23T04:17:35.214Z,17.87
2023-11-23T04:21:36.548Z,18.13
2023-11-23T04:25:38.407Z,18.21
2023-11-23T04:29:39.724Z,18.25
2023-11-23T04:33:41.168Z,18.05
2023-11-23T04:37:42.628Z,18.16
2023-11-23T04:41:43.981Z,17.90
2023-11-23T04:45:45.349Z,18.30
2023-11-23T04:49:46.685Z,18.18
2023-11-23T04:53:48.071Z,18.31
2023-11-23T04:57:49.849Z,18.04
2023-11-23T05:01:51.194Z,18.46
2023-11-23T05:05:52.636Z,18.34
2023-11-23T05:09:54.118Z,18.40
2023-11-23T05:13:57.618Z,18.35
2023-11-23T05:17:59.226Z,18.45
2023-11-23T05:22:00.567Z,18.35
2023-11-23T05:26:04.518Z,18.53
2023-11-23T05:30:06.719Z,18.43
2023-11-23T05:34:08.077Z,18.70
2023-11-23T05:38:09.379Z,18.51
2023-11-23T05:42:10.901Z,18.73
2023-11-23T05:46:14.518Z,18.45
2023-11-23T05:50:16.367Z,18.39
2023-11-23T05:54:17.806Z,18.36
2023-11-23T05:58:19.134Z,18.21
2023-11-23T06:02:20.538Z,17.97
2023-11-23T06:06:24.524Z,18.40
2023-11-23T06:10:28.138Z,18.14
2023-11-23T06:14:29.702Z,18.49
2023-11-23T06:18:31.236Z,18.45
2023-11-23T06:22:32.862Z,18.56
2023-11-23T06:26:34.168Z,18.35
2023-11-23T06:30:36.157Z,18.42
2023-11-23T06:34:40.366Z,18.08
2023-11-23T06:38:42.686Z,18.57
2023-11-23T06:42:44.051Z,18.31
2023-11-23T06:47:05.208Z,18.77
2023-11-23T06:51:08.048Z,18.42
2023-11-23T06:55:10.611Z,18.40
2023-11-23T06:59:12.127Z,18.69
2023-11-23T07:03:13.702Z,18.31
2023-11-23T07:07:15.150Z,18.67
2023-11-23T07:11:20.275Z,18.51
2023-11-23T07:15:25.977Z,18.78
2023-11-23T07:19:27.697Z,19.12
2023-11-23T07:23:29.088Z,18.97
2023-11-23T07:27:30.741Z,19.00
2023-11-23T07:31:32.211Z,18.78
2023-11-23T07:35:33.758Z,18.88
2023-11-23T07:39:35.209Z,19.17
2023-11-23T07:43:36.805Z,19.14
2023-11-23T07:47:42.610Z,19.25
2023-11-23T07:51:44.027Z,18.95
2023-11-23T07:55:45.353Z,19.30
2023-11-23T07:59:46.913Z,19.38
2023-11-23T08:03:51.403Z,19.57
2023-11-23T08:07:52.830Z,19.58
2023-11-23T08:11:58.321Z,19.45
2023-11-23T08:16:03.051Z,19.59
2023-11-23T08:20:13.404Z,19.72
2023-11-23T08:24:16.256Z,19.61
2023-11-23T08:28:17.644Z,19.80
2023-11-23T08:32:20.047Z,19.64
2023-11-23T08:36:21.441Z,19.85
2023-11-23T08:40:23.025Z,19.71
2023-11-23T08:44:24.316Z,19.49
2023-11-23T08:48:25.902Z,19.99
2023-11-23T08:52:28.957Z,19.65
2023-11-23T08:56:30.440Z,19.68
2023-11-23T09:00:31.786Z,19.85
2023-11-23T09:04:44.460Z,19.58
2023-11-23T09:08:47.021Z,19.95
2023-11-23T09:12:48.348Z,19.89
2023-11-23T09:16:49.683Z,19.79
2023-11-23T09:20:52.156Z,19.51
2023-11-23T09:24:53.614Z,19.71
2023-11-23T09:28:54.960Z,20.15
2023-11-23T09:32:56.877Z,20.43
2023-11-23T09:36:58.357Z,20.21
2023-11-23T09:41:00.086Z,20.19
2023-11-23T09:45:02.592Z,20.00
2023-11-23T09:49:05.239Z,20.28
2023-11-23T09:53:10.421Z,20.21
2023-11-23T09:57:11.885Z,19.99
2023-11-23T10:01:14.009Z,20.03
2023-11-23T10:05:17.286Z,20.27
2023-11-23T10:09:18.756Z,20.25
2023-11-23T10:13:22.842Z,20.38
2023-11-23T10:17:24.207Z,19.93
2023-11-23T10:21:25.698Z,20.50
2023-11-23T10:25:36.609Z,20.79
2023-11-23T10:29:38.309Z,20.93
2023-11-23T10:33:42.646Z,20.60
2023-11-23T10:37:44.068Z,20.47
2023-11-23T10:41:48.517Z,20.64
2023-11-23T10:45:50.524Z,20.48
2023-11-23T10:49:55.877Z,20.41
2023-11-23T10:53:57.348Z,20.62
2023-11-23T10:58:11.266Z,20.68
2023-11-23T11:02:13.707Z,20.18
2023-11-23T11:06:18.619Z,20.66
2023-11-23T11:10:20.641Z,20.71
2023-11-23T11:14:35.755Z,20.40
2023-11-23T11:18:37.483Z,20.30
2023-11-23T11:22:38.939Z,20.41
2023-11-23T11:26:43.796Z,20.86
2023-11-23T11:30:47.371Z,20.95
2023-11-23T11:34:48.922Z,21.00
2023-11-23T11:39:00.159Z,20.68
2023-11-23T11:43:03.637Z,20.71
2023-11-23T11:47:08.038Z,21.06
2023-11-23T11:51:10.012Z,21.22
2023-11-23T11:55:11.805Z,21.05
2023-11-23T11:59:13.234Z,21.11
2023-11-23T12:03:15.298Z,21.03
2023-11-23T12:07:16.891Z,20.60
2023-11-23T12:11:32.074Z,20.80
2023-11-23T12:15:34.968Z,20.84
2023-11-23T12:19:36.584Z,21.12
2023-11-23T12:23:42.683Z,20.99
2023-11-23T12:27:45.130Z,21.11
2023-11-23T12:31:46.462Z,21.17
2023-11-23T12:35:49.045Z,21.11
2023-11-23T12:39:55.634Z,21.29
2023-11-23T12:43:56.999Z,20.87
2023-11-23T12:47:59.262Z,21.10
2023-11-23T12:52:02.333Z,20.95
2023-11-23T12:56:04.031Z,21.23
2023-11-23T13:00:14.967Z,20.91
2023-11-23T13:04:20.187Z,21.11
2023-11-23T13:08:21.877Z,20.70
2023-11-23T13:12:23.386Z,20.74
2023-11-23T13:16:25.251Z,21.05
2023-11-23T13:20:29.865Z,20.94
2023-11-23T13:24:31.776Z,20.91
2023-11-23T13:28:36.668Z,20.78
2023-11-23T13:32:39.871Z,20.75
2023-11-23T13:36:42.268Z,20.63
2023-11-23T13:40:44.271Z,20.85
2023-11-23T13:44:48.290Z,21.00
2023-11-23T13:48:51.172Z,20.85
2023-11-23T13:52:52.507Z,21.16
2023-11-23T13:56:54.175Z,20.65
2023-11-23T14:00:55.507Z,20.65
2023-11-23T14:04:56.821Z,20.90
2023-11-23T14:08:58.275Z,20.63
2023-11-23T14:13:01.083Z,20.95
2023-11-23T14:17:02.446Z,21.07
2023-11-23T14:21:04.041Z,21.13
2023-11-23T14:25:06.052Z,21.05
2023-11-23T14:29:08.942Z,21.06
2023-11-23T14:33:14.306Z,20.85
2023-11-23T14:37:15.794Z,20.66
2023-11-23T14:41:23.248Z,21.11
2023-11-23T14:45:28.381Z,20.68
2023-11-23T14:49:31.801Z,20.75
2023-11-23T14:53:33.189Z,21.20
2023-11-23T14:57:34.727Z,21.29
2023-11-23T15:01:37.027Z,21.18
2023-11-23T15:05:38.409Z,21.19
2023-11-23T15:09:42.141Z,21.08
2023-11-23T15:13:43.498Z,21.21
2023-11-23T15:17:44.810Z,21.10
2023-11-23T15:21:46.622Z,21.42
2023-11-23T15:25:48.842Z,20.72
2023-11-23T15:29:50.968Z,21.23
2023-11-23T15:33:52.482Z,21.28
2023-11-23T15:37:54.013Z,21.29
2023-11-23T15:41:55.525Z,21.37
2023-11-23T15:45:56.832Z,20.75
2023-11-23T15:49:58.206Z,21.19
2023-11-23T15:53:59.717Z,21.00
2023-11-23T15:58:01.233Z,21.08
2023-11-23T16:02:04.889Z,21.20
2023-11-23T16:06:07.644Z,21.52
2023-11-23T16:10:10.295Z,21.01
2023-11-23T16:14:12.136Z,21.29
2023-11-23T16:18:14.764Z,20.90
2023-11-23T16:22:16.163Z,21.11
2023-11-23T16:26:18.711Z,21.52
2023-11-23T16:30:20.097Z,21.26
2023-11-23T16:34:21.863Z,21.29
2023-11-23T16:38:23.269Z,21.25
2023-11-23T16:42:24.640Z,21.52
2023-11-23T16:46:26.280Z,21.53
2023-11-23T16:50:30.217Z,21.08
2023-11-23T16:54:32.668Z,21.21
2023-11-23T16:58:34.037Z,21.45
2023-11-23T17:02:35.572Z,21.30
2023-11-23T17:06:38.029Z,21.36
2023-11-23T17:10:41.049Z,21.48
2023-11-23T17:14:42.970Z,21.51
2023-11-23T17:18:44.407Z,21.48
2023-11-23T17:22:46.233Z,21.25
2023-11-23T17:26:47.580Z,21.32
2023-11-23T17:30:49.310Z,21.27
2023-11-23T17:34:50.861Z,21.27
2023-11-23T17:38:52.842Z,21.47
2023-11-23T17:42:54.236Z,21.33
2023-11-23T17:46:55.715Z,21.13
2023-11-23T17:50:57.085Z,21.22
2023-11-23T17:54:58.993Z,21.12
2023-11-23T17:59:13.588Z,21.19
2023-11-23T18:03:22.137Z,20.87
2023-11-23T18:07:23.528Z,21.16
2023-11-23T18:11:26.154Z,21.19
2023-11-23T18:15:27.528Z,21.12
2023-11-23T18:19:28.924Z,21.39
2023-11-23T18:23:30.329Z,20.91
2023-11-23T18:27:31.656Z,21.29
2023-11-23T18:31:34.133Z,21.49
2023-11-23T18:35:36.592Z,20.95
2023-11-23T18:39:38.036Z,21.29
2023-11-23T18:43:39.688Z,21.07
2023-11-23T18:47:42.440Z,20.89
2023-11-23T18:51:43.924Z,20.98
2023-11-23T18:55:46.197Z,20.84
2023-11-23T18:59:47.654Z,20.21
2023-11-23T19:03:49.371Z,20.91
2023-11-23T19:07:50.800Z,20.51
2023-11-23T19:11:53.613Z,20.23
2023-11-23T19:15:56.080Z,20.52
2023-11-23T19:19:57.753Z,20.43
2023-11-23T19:23:59.410Z,20.57
2023-11-23T19:28:02.280Z,20.14
2023-11-23T19:32:11.513Z,20.13
2023-11-23T19:36:15.053Z,20.48
2023-11-23T19:40:17.467Z,20.66
2023-11-23T19:44:19.154Z,20.46
2023-11-23T19:48:21.079Z,20.52
2023-11-23T19:52:28.371Z,20.17
2023-11-23T19:56:29.684Z,20.35
2023-11-23T20:00:31.430Z,20.28
2023-11-23T20:04:34.263Z,20.28
2023-11-23T20:08:35.724Z,20.17
2023-11-23T20:12:37.574Z,20.25
2023-11-23T20:16:42.296Z,20.42
2023-11-23T20:20:43.624Z,20.05
2023-11-23T20:24:45.255Z,20.21
2023-11-23T20:28:47.894Z,19.96
2023-11-23T20:32:50.015Z,20.33
2023-11-23T20:36:51.397Z,20.31
2023-11-23T20:40:52.820Z,20.37
2023-11-23T20:44:54.154Z,19.87
2023-11-23T20:48:56.852Z,19.97
2023-11-23T20:52:58.247Z,19.88
2023-11-23T20:57:00.641Z,19.96
2023-11-23T21:01:02.586Z,19.93
2023-11-23T21:05:05.764Z,19.71
2023-11-23T21:09:09.570Z,19.81
2023-11-23T21:13:11.207Z,19.61
2023-11-23T21:17:25.032Z,19.77
2023-11-23T21:21:26.846Z,19.76
2023-11-23T21:25:28.245Z,19.06
2023-11-23T21:29:29.558Z,19.51
2023-11-23T21:33:30.917Z,19.78
2023-11-23T21:37:32.336Z,19.64
2023-11-23T21:41:33.768Z,19.46
2023-11-23T21:45:36.408Z,20.03
2023-11-23T21:49:41.075Z,19.39
2023-11-23T21:53:42.478Z,19.54
2023-11-23T21:57:43.935Z,19.89
2023-11-23T22:01:45.367Z,19.81
2023-11-23T22:05:46.827Z,20.15
2023-11-23T22:09:48.213Z,19.77
2023-11-23T22:13:49.622Z,19.77
2023-11-23T22:17:54.173Z,19.67
2023-11-23T22:21:55.763Z,19.85
2023-11-23T22:25:57.376Z,19.84
2023-11-23T22:29:58.917Z,19.82
2023-11-23T22:34:00.621Z,19.95
2023-11-23T22:38:06.947Z,19.76
2023-11-23T22:42:09.919Z,20.15
2023-11-23T22:46:12.528Z,19.90
2023-11-23T22:50:14.169Z,19.69
2023-11-23T22:54:15.684Z,19.45
2023-11-23T22:58:17.001Z,19.95
2023-11-23T23:02:19.005Z,19.75
2023-11-23T23:06:21.818Z,20.06
2023-11-23T23:10:25.158Z,19.95
2023-11-23T23:14:28.933Z,20.25
2023-11-23T23:18:30.410Z,19.85
2023-11-23T23:22:34.749Z,19.65
2023-11-23T23:26:36.094Z,19.86
2023-11-23T23:30:37.535Z,19.13
2023-11-23T23:34:39.248Z,19.05
2023-11-23T23:38:40.714Z,18.63
2023-11-23T23:42:43.429Z,18.27
2023-11-23T23:46:44.919Z,18.27
2023-11-23T23:50:46.395Z,18.23
2023-11-23T23:54:49.858Z,18.32
2023-11-23T23:58:53.430Z,17.91
